Adriatic Highway — 7JDP — position and weather

sailwx.info

Track history (hours):
 
Tides and Currents Weather Stations Pressure Air Temp Water Temp Dewpoint Dewpoint Depression Visibility Wind Speed Wind Dir Waves Ship Positions

Adriatic Highway

Last reported at 2017-Sep-21 08:25 UTC. Time now 2017-Sep-21 08:59 UTC.
Position N 49°43' W 004°16'.

Length 199 m; draft 9.2 m.

Type: Cargo ship. MMSI: 432665000.

Date/timePositionNaut miles runAvg speedWind from/ knotsBaromVisibWave heightAir tempDewpointWater temp
2017-Sep-21 08:25N 49°43' W 004°16'614.7
2017-Sep-21 08:00N 49°45' W 004°07'714.2
2017-Sep-21 07:30N 49°47' W 003°56'713.6
2017-Sep-21 07:00N 49°48' W 003°46'713.1
2017-Sep-21 06:30N 49°50' W 003°36'713.2
2017-Sep-21 06:00N 49°51' W 003°26'713.5
2017-Sep-21 05:30N 49°53' W 003°16'714.1
2017-Sep-21 05:00N 49°56' W 003°06'715.0
2017-Sep-21 04:31N 49°59' W 002°56'815.9
2017-Sep-21 04:00N 50°02' W 002°44'5218.5
2017-Sep-21 01:11N 50°16' W 001°26'318.5
2017-Sep-21 01:01N 50°17' W 001°21'917.8
2017-Sep-21 00:30N 50°20' W 001°08'1016.6
2017-Sep-20 23:54N 50°23' W 000°52'715.1
2017-Sep-20 23:26N 50°25' W 000°42'614.4
2017-Sep-20 23:00N 50°26' W 000°33'714.1
2017-Sep-20 22:30N 50°28' W 000°22'713.8
2017-Sep-20 22:00N 50°30' W 000°11'713.3
2017-Sep-20 21:30N 50°32' W 000°01'612.8
2017-Sep-20 21:00N 50°34' E 000°08'612.9
2017-Sep-20 20:30N 50°35' E 000°18'713.2
2017-Sep-20 20:00N 50°37' E 000°28'714.1
2017-Sep-20 19:30N 50°40' E 000°38'815.3
2017-Sep-20 19:01N 50°44' E 000°48'816.4
2017-Sep-20 18:30N 50°49' E 000°59'917.0
2017-Sep-20 17:59N 50°55' E 001°09'817.2
2017-Sep-20 17:30N 51°00' E 001°19'816.7
2017-Sep-20 17:00N 51°05' E 001°29'815.6
2017-Sep-20 16:30N 51°10' E 001°39'714.9
2017-Sep-20 16:01N 51°16' E 001°47'714.4
2017-Sep-20 15:30N 51°22' E 001°52'713.9
2017-Sep-20 15:01N 51°28' E 001°59'1413.7
2017-Sep-20 14:00N 51°38' E 002°13'713.6
2017-Sep-20 13:30N 51°44' E 002°20'713.7
2017-Sep-20 13:00N 51°49' E 002°28'4315.6
2017-Sep-20 10:13N 52°22' E 003°12'2217.0
2017-Sep-20 08:55N 52°40' E 003°34'3316.4
2017-Sep-20 06:53N 53°04' E 004°12'615.4
2017-Sep-20 06:30N 53°08' E 004°19'1115.0
2017-Sep-20 05:45N 53°17' E 004°30'714.9
2017-Sep-20 05:15N 53°24' E 004°35'414.7
2017-Sep-20 05:00N 53°27' E 004°37'714.0
2017-Sep-20 04:30N 53°31' E 004°47'714.2
2017-Sep-20 04:00N 53°34' E 004°58'714.6
2017-Sep-20 03:30N 53°36' E 005°10'1015.6
2017-Sep-20 02:53N 53°40' E 005°25'4712.9
2017-Sep-19 23:15N 53°32' E 006°43'415.6
2017-Sep-19 23:00N 53°30' E 006°48'714.0
2017-Sep-19 22:30N 53°25' E 006°56'611.0
2017-Sep-19 22:00N 53°20' E 006°60'4 8.4
2017-Sep-19 21:30N 53°20' E 007°07'2 3.2
2017-Sep-19 20:59N 53°20' E 007°10'0 0.0
2017-Sep-19 20:29N 53°20' E 007°10'0 0.0
2017-Sep-19 19:59N 53°20' E 007°10'0 0.0
2017-Sep-19 19:29N 53°20' E 007°10'0 0.0
2017-Sep-19 18:59N 53°20' E 007°10'0 0.0
2017-Sep-19 18:29N 53°20' E 007°10'0 0.0
2017-Sep-19 17:56N 53°20' E 007°10'0 0.0
2017-Sep-19 17:29N 53°20' E 007°10'0 0.0
2017-Sep-19 16:59N 53°20' E 007°10'0 0.0
2017-Sep-19 16:29N 53°20' E 007°10'0 0.0
2017-Sep-19 15:59N 53°20' E 007°10'0 0.0
2017-Sep-19 15:29N 53°20' E 007°10'0 0.0
2017-Sep-19 14:56N 53°20' E 007°10'0 0.0
2017-Sep-19 14:29N 53°20' E 007°10'0 0.0
2017-Sep-19 13:59N 53°20' E 007°10'0 0.0
2017-Sep-19 13:29N 53°20' E 007°10'0 0.0
2017-Sep-19 12:59N 53°20' E 007°10'0 0.0
2017-Sep-19 12:29N 53°20' E 007°10'0 0.0
2017-Sep-19 11:59N 53°20' E 007°10'0 0.0
2017-Sep-19 11:29N 53°20' E 007°10'0 0.0
2017-Sep-19 10:59N 53°20' E 007°10'0 0.0
2017-Sep-19 10:23N 53°20' E 007°10'0 0.0
2017-Sep-19 09:56N 53°20' E 007°10'0 0.0
2017-Sep-19 09:29N 53°20' E 007°10'0 0.0
2017-Sep-19 08:59N 53°20' E 007°10'0 0.0
2017-Sep-19 08:29N 53°20' E 007°10'0 0.0
2017-Sep-19 07:59N 53°20' E 007°10'0 0.0
2017-Sep-19 07:29N 53°20' E 007°10'0 0.0
2017-Sep-19 06:56N 53°20' E 007°10'0 0.0
2017-Sep-19 06:29N 53°20' E 007°10'0 0.0
2017-Sep-19 05:56N 53°20' E 007°10'0 0.0
2017-Sep-19 05:29N 53°20' E 007°10'0 0.0
2017-Sep-19 04:59N 53°20' E 007°10'0 0.0
2017-Sep-19 04:29N 53°20' E 007°10'0 0.0
2017-Sep-19 03:59N 53°20' E 007°10'0 0.0
2017-Sep-19 03:29N 53°20' E 007°10'0 0.0
2017-Sep-19 02:59N 53°20' E 007°10'0 0.0
2017-Sep-19 02:29N 53°20' E 007°10'0 0.0
2017-Sep-19 01:59N 53°20' E 007°10'0 0.0
2017-Sep-19 01:29N 53°20' E 007°10'0 0.0
2017-Sep-19 00:59N 53°20' E 007°10'0 0.0
2017-Sep-19 00:29N 53°20' E 007°10'0 0.0
2017-Sep-18 23:59N 53°20' E 007°10'0 0.0
2017-Sep-18 23:29N 53°20' E 007°10'0 0.0
2017-Sep-18 22:59N 53°20' E 007°10'0 0.0
2017-Sep-18 22:29N 53°20' E 007°10'0 0.0
2017-Sep-18 21:59N 53°20' E 007°10'0 0.0
2017-Sep-18 21:29N 53°20' E 007°10'0 0.0
2017-Sep-18 20:59N 53°20' E 007°10'0 0.0
2017-Sep-18 20:26N 53°20' E 007°10'0 0.0
2017-Sep-18 19:56N 53°20' E 007°10'0 0.0
2017-Sep-18 19:29N 53°20' E 007°10'0 0.0
2017-Sep-18 18:59N 53°20' E 007°10'0 0.0
2017-Sep-18 18:29N 53°20' E 007°10'0 0.0
2017-Sep-18 17:59N 53°20' E 007°10'0 0.0
2017-Sep-18 17:26N 53°20' E 007°10'0 0.0
2017-Sep-18 16:59N 53°20' E 007°10'0 0.0
2017-Sep-18 16:29N 53°20' E 007°10'0 0.0
2017-Sep-18 15:59N 53°20' E 007°10'0 0.0
2017-Sep-18 15:29N 53°20' E 007°10'0 0.0
2017-Sep-18 14:59N 53°20' E 007°10'0 0.0
2017-Sep-18 14:29N 53°20' E 007°10'0 0.0
2017-Sep-18 13:59N 53°20' E 007°10'0 0.0
2017-Sep-18 13:29N 53°20' E 007°10'0 0.0
2017-Sep-18 12:59N 53°20' E 007°10'0 0.0
2017-Sep-18 12:29N 53°20' E 007°10'0 0.0
2017-Sep-18 11:59N 53°20' E 007°10'0 0.0
2017-Sep-18 11:29N 53°20' E 007°10'0 0.0
2017-Sep-18 10:59N 53°20' E 007°10'0 0.0
2017-Sep-18 10:29N 53°20' E 007°10'0 0.0
2017-Sep-18 09:59N 53°20' E 007°10'0 0.0
2017-Sep-18 09:29N 53°20' E 007°10'0 0.0
2017-Sep-18 08:56N 53°20' E 007°10'0 0.0
2017-Sep-18 08:29N 53°20' E 007°10'0 0.0
2017-Sep-18 07:59N 53°20' E 007°10'0 0.0
2017-Sep-18 07:26N 53°20' E 007°10'0 0.0
2017-Sep-18 06:59N 53°20' E 007°10'0 0.0
2017-Sep-18 06:29N 53°20' E 007°10'0 0.0
2017-Sep-18 05:59N 53°20' E 007°10'0 0.0
2017-Sep-18 05:29N 53°20' E 007°10'0 0.0
2017-Sep-18 04:53N 53°20' E 007°10'0 0.0
2017-Sep-18 04:29N 53°20' E 007°10'0 0.0
2017-Sep-18 03:59N 53°20' E 007°10'0 0.0
2017-Sep-18 03:29N 53°20' E 007°10'0 0.0
2017-Sep-18 02:59N 53°20' E 007°10'0 0.0
2017-Sep-18 02:29N 53°20' E 007°10'0 0.0
2017-Sep-18 01:59N 53°20' E 007°10'0 0.0
2017-Sep-18 01:29N 53°20' E 007°10'0 0.0
2017-Sep-18 00:59N 53°20' E 007°10'0 0.0
2017-Sep-18 00:29N 53°20' E 007°10'0 0.0
2017-Sep-17 23:56N 53°20' E 007°10'0 0.0
2017-Sep-17 23:26N 53°20' E 007°10'0 0.0
2017-Sep-17 22:59N 53°20' E 007°10'0 0.0
2017-Sep-17 22:29N 53°20' E 007°10'0 0.0
2017-Sep-17 21:59N 53°20' E 007°10'0 0.0
2017-Sep-17 21:26N 53°20' E 007°10'0 0.0
2017-Sep-17 20:59N 53°20' E 007°10'0 0.0
2017-Sep-17 20:29N 53°20' E 007°10'0 0.0
2017-Sep-17 19:59N 53°20' E 007°10'0 0.0
2017-Sep-17 19:29N 53°20' E 007°10'0 0.0
2017-Sep-17 18:59N 53°20' E 007°10'0 0.0
2017-Sep-17 18:29N 53°20' E 007°10'0 0.0
2017-Sep-17 17:59N 53°20' E 007°10'0 0.0
2017-Sep-17 17:26N 53°20' E 007°10'0 0.0
2017-Sep-17 16:59N 53°20' E 007°10'0 0.0
2017-Sep-17 16:29N 53°20' E 007°10'0 0.0
2017-Sep-17 15:59N 53°20' E 007°10'0 0.0
2017-Sep-17 15:26N 53°20' E 007°10'0 0.0
2017-Sep-17 14:59N 53°20' E 007°10'0 0.0
2017-Sep-17 14:29N 53°20' E 007°10'0 0.0
2017-Sep-17 13:50N 53°20' E 007°10'0 0.0
2017-Sep-17 13:26N 53°20' E 007°10'0 0.0
2017-Sep-17 12:59N 53°20' E 007°10'0 0.0
2017-Sep-17 12:29N 53°20' E 007°10'0 0.0
2017-Sep-17 11:56N 53°20' E 007°10'0 0.0
2017-Sep-17 11:29N 53°20' E 007°10'0 0.0
2017-Sep-17 10:59N 53°20' E 007°10'0 0.0
2017-Sep-17 10:29N 53°20' E 007°10'0 0.1
2017-Sep-17 10:00N 53°20' E 007°10'1 1.7
2017-Sep-17 09:30N 53°20' E 007°08'4 8.4
2017-Sep-17 09:00N 53°19' E 007°01'510.2
2017-Sep-17 08:31N 53°24' E 006°57'611.6
2017-Sep-17 08:00N 53°28' E 006°51'22 3.1
2017-Sep-17 00:59N 53°36' E 006°17'0 0.1
2017-Sep-17 00:26N 53°36' E 006°17'0 0.1
2017-Sep-16 23:56N 53°36' E 006°17'0 0.1
2017-Sep-16 23:26N 53°36' E 006°17'0 0.0
2017-Sep-16 22:56N 53°36' E 006°17'0 0.0
2017-Sep-16 22:26N 53°36' E 006°17'0 0.0
2017-Sep-16 21:59N 53°36' E 006°17'0 0.0
2017-Sep-16 21:23N 53°36' E 006°17'0 0.1
2017-Sep-16 20:59N 53°36' E 006°17'0 0.1
2017-Sep-16 20:29N 53°36' E 006°17'0 0.0
2017-Sep-16 19:59N 53°36' E 006°17'0 0.0
2017-Sep-16 19:26N 53°36' E 006°17'0 0.0
2017-Sep-16 18:56N 53°36' E 006°17'0 0.0
2017-Sep-16 18:29N 53°36' E 006°17'0 0.0
2017-Sep-16 17:59N 53°36' E 006°17'0 0.0
2017-Sep-16 17:29N 53°36' E 006°17'0 0.0
2017-Sep-16 16:59N 53°36' E 006°17'0 0.0
2017-Sep-16 16:26N 53°36' E 006°17'0 0.0
2017-Sep-16 15:56N 53°36' E 006°17'0 0.0
2017-Sep-16 15:29N 53°36' E 006°17'0 0.0
2017-Sep-16 14:59N 53°36' E 006°17'0 0.0
2017-Sep-16 14:26N 53°36' E 006°17'0 0.0
2017-Sep-16 13:50N 53°36' E 006°17'0 0.0
2017-Sep-16 13:17N 53°36' E 006°17'0 0.0
2017-Sep-16 12:53N 53°36' E 006°17'0 0.0
2017-Sep-16 12:23N 53°36' E 006°17'0 0.1
2017-Sep-16 11:44N 53°36' E 006°17'0 0.0
2017-Sep-16 11:26N 53°36' E 006°17'28 1.5
2017-Sep-15 17:30N 53°35' E 005°30'816.3
2017-Sep-15 17:00N 53°32' E 005°17'816.1
2017-Sep-15 16:30N 53°29' E 005°05'816.1
2017-Sep-15 16:00N 53°26' E 004°52'815.4
2017-Sep-15 15:30N 53°22' E 004°41'815.8
2017-Sep-15 14:59N 53°15' E 004°35'816.0
2017-Sep-15 14:30N 53°08' E 004°29'815.9
2017-Sep-15 14:00N 53°02' E 004°21'816.1
2017-Sep-15 13:30N 52°54' E 004°16'816.1
2017-Sep-15 13:00N 52°47' E 004°09'816.4
2017-Sep-15 12:30N 52°41' E 003°60'816.6
2017-Sep-15 12:00N 52°35' E 003°51'816.6
2017-Sep-15 11:30N 52°29' E 003°41'6317.0
2017-Sep-15 07:47N 51°43' E 002°31'516.9
2017-Sep-15 07:30N 51°39' E 002°27'816.8
2017-Sep-15 07:00N 51°32' E 002°18'816.3
2017-Sep-15 06:30N 51°25' E 002°12'816.3
2017-Sep-15 06:00N 51°18' E 002°07'815.9
2017-Sep-15 05:30N 51°12' E 001°59'816.4
2017-Sep-15 05:00N 51°07' E 001°48'815.9
2017-Sep-15 04:30N 51°01' E 001°39'815.5
2017-Sep-15 04:00N 50°56' E 001°30'715.0
2017-Sep-15 03:30N 50°49' E 001°26'814.3
2017-Sep-15 02:59N 50°42' E 001°22'815.2
2017-Sep-15 02:26N 50°36' E 001°13'715.5
2017-Sep-15 01:59N 50°31' E 001°05'915.5
2017-Sep-15 01:26N 50°28' E 000°53'816.0
2017-Sep-15 00:57N 50°27' E 000°41'715.9
2017-Sep-15 00:30N 50°25' E 000°30'815.7
2017-Sep-15 00:00N 50°22' E 000°19'815.5
2017-Sep-14 23:30N 50°20' E 000°07'815.4
2017-Sep-14 23:00N 50°19' W 000°05'815.2
2017-Sep-14 22:30N 50°17' W 000°17'2614.6
2017-Sep-14 20:44N 50°11' W 000°56'314.1
2017-Sep-14 20:30N 50°10' W 001°01'714.0
2017-Sep-14 20:00N 50°08' W 001°11'714.0
2017-Sep-14 19:30N 50°06' W 001°22'714.1
2017-Sep-14 19:00N 50°04' W 001°32'714.3
2017-Sep-14 18:30N 50°02' W 001°43'714.6
2017-Sep-14 18:00N 50°00' W 001°54'715.0
2017-Sep-14 17:30N 49°59' W 002°05'815.7
2017-Sep-14 16:59N 49°57' W 002°17'816.0
2017-Sep-14 16:30N 49°54' W 002°29'816.4
2017-Sep-14 16:00N 49°52' W 002°41'816.5
2017-Sep-14 15:30N 49°50' W 002°53'816.6
2017-Sep-14 15:00N 49°49' W 003°06'816.6
2017-Sep-14 14:30N 49°48' W 003°19'816.6
2017-Sep-14 14:00N 49°47' W 003°32'816.5
2017-Sep-14 13:30N 49°48' W 003°45'816.6
2017-Sep-14 13:00N 49°47' W 003°57'816.5
2017-Sep-14 12:30N 49°46' W 004°10'816.5
2017-Sep-14 12:00N 49°46' W 004°23'916.4
2017-Sep-14 11:27N 49°45' W 004°37'716.4
2017-Sep-14 11:00N 49°44' W 004°48'1816.2
2017-Sep-14 09:53N 49°42' W 005°16'  
Track history (hours):
 
Tides and Currents Weather Stations Pressure Air Temp Water Temp Dewpoint Dewpoint Depression Visibility Wind Speed Wind Dir Waves Ship Positions

Adriatic Highway

Last reported at 2017-Sep-21 08:25 UTC. Time now 2017-Sep-21 08:59 UTC.
Position N 49°43' W 004°16'.

Length 199 m; draft 9.2 m.

Type: Cargo ship. MMSI: 432665000.

Date/timePositionNaut miles runAvg speedWind from/ knotsBaromVisibWave heightAir tempDewpointWater temp
2017-Sep-21 08:25N 49°43' W 004°16'614.7
2017-Sep-21 08:00N 49°45' W 004°07'714.2
2017-Sep-21 07:30N 49°47' W 003°56'713.6
2017-Sep-21 07:00N 49°48' W 003°46'713.1
2017-Sep-21 06:30N 49°50' W 003°36'713.2
2017-Sep-21 06:00N 49°51' W 003°26'713.5
2017-Sep-21 05:30N 49°53' W 003°16'714.1
2017-Sep-21 05:00N 49°56' W 003°06'715.0
2017-Sep-21 04:31N 49°59' W 002°56'815.9
2017-Sep-21 04:00N 50°02' W 002°44'5218.5
2017-Sep-21 01:11N 50°16' W 001°26'318.5
2017-Sep-21 01:01N 50°17' W 001°21'917.8
2017-Sep-21 00:30N 50°20' W 001°08'1016.6
2017-Sep-20 23:54N 50°23' W 000°52'715.1
2017-Sep-20 23:26N 50°25' W 000°42'614.4
2017-Sep-20 23:00N 50°26' W 000°33'714.1
2017-Sep-20 22:30N 50°28' W 000°22'713.8
2017-Sep-20 22:00N 50°30' W 000°11'713.3
2017-Sep-20 21:30N 50°32' W 000°01'612.8
2017-Sep-20 21:00N 50°34' E 000°08'612.9
2017-Sep-20 20:30N 50°35' E 000°18'713.2
2017-Sep-20 20:00N 50°37' E 000°28'714.1
2017-Sep-20 19:30N 50°40' E 000°38'815.3
2017-Sep-20 19:01N 50°44' E 000°48'816.4
2017-Sep-20 18:30N 50°49' E 000°59'917.0
2017-Sep-20 17:59N 50°55' E 001°09'817.2
2017-Sep-20 17:30N 51°00' E 001°19'816.7
2017-Sep-20 17:00N 51°05' E 001°29'815.6
2017-Sep-20 16:30N 51°10' E 001°39'714.9
2017-Sep-20 16:01N 51°16' E 001°47'714.4
2017-Sep-20 15:30N 51°22' E 001°52'713.9
2017-Sep-20 15:01N 51°28' E 001°59'1413.7
2017-Sep-20 14:00N 51°38' E 002°13'713.6
2017-Sep-20 13:30N 51°44' E 002°20'713.7
2017-Sep-20 13:00N 51°49' E 002°28'4315.6
2017-Sep-20 10:13N 52°22' E 003°12'2217.0
2017-Sep-20 08:55N 52°40' E 003°34'3316.4
2017-Sep-20 06:53N 53°04' E 004°12'615.4
2017-Sep-20 06:30N 53°08' E 004°19'1115.0
2017-Sep-20 05:45N 53°17' E 004°30'714.9
2017-Sep-20 05:15N 53°24' E 004°35'414.7
2017-Sep-20 05:00N 53°27' E 004°37'714.0
2017-Sep-20 04:30N 53°31' E 004°47'714.2
2017-Sep-20 04:00N 53°34' E 004°58'714.6
2017-Sep-20 03:30N 53°36' E 005°10'1015.6
2017-Sep-20 02:53N 53°40' E 005°25'4712.9
2017-Sep-19 23:15N 53°32' E 006°43'415.6
2017-Sep-19 23:00N 53°30' E 006°48'714.0
2017-Sep-19 22:30N 53°25' E 006°56'611.0
2017-Sep-19 22:00N 53°20' E 006°60'4 8.4
2017-Sep-19 21:30N 53°20' E 007°07'2 3.2
2017-Sep-19 20:59N 53°20' E 007°10'0 0.0
2017-Sep-19 20:29N 53°20' E 007°10'0 0.0
2017-Sep-19 19:59N 53°20' E 007°10'0 0.0
2017-Sep-19 19:29N 53°20' E 007°10'0 0.0
2017-Sep-19 18:59N 53°20' E 007°10'0 0.0
2017-Sep-19 18:29N 53°20' E 007°10'0 0.0
2017-Sep-19 17:56N 53°20' E 007°10'0 0.0
2017-Sep-19 17:29N 53°20' E 007°10'0 0.0
2017-Sep-19 16:59N 53°20' E 007°10'0 0.0
2017-Sep-19 16:29N 53°20' E 007°10'0 0.0
2017-Sep-19 15:59N 53°20' E 007°10'0 0.0
2017-Sep-19 15:29N 53°20' E 007°10'0 0.0
2017-Sep-19 14:56N 53°20' E 007°10'0 0.0
2017-Sep-19 14:29N 53°20' E 007°10'0 0.0
2017-Sep-19 13:59N 53°20' E 007°10'0 0.0
2017-Sep-19 13:29N 53°20' E 007°10'0 0.0
2017-Sep-19 12:59N 53°20' E 007°10'0 0.0
2017-Sep-19 12:29N 53°20' E 007°10'0 0.0
2017-Sep-19 11:59N 53°20' E 007°10'0 0.0
2017-Sep-19 11:29N 53°20' E 007°10'0 0.0
2017-Sep-19 10:59N 53°20' E 007°10'0 0.0
2017-Sep-19 10:23N 53°20' E 007°10'0 0.0
2017-Sep-19 09:56N 53°20' E 007°10'0 0.0
2017-Sep-19 09:29N 53°20' E 007°10'0 0.0
2017-Sep-19 08:59N 53°20' E 007°10'0 0.0
2017-Sep-19 08:29N 53°20' E 007°10'0 0.0
2017-Sep-19 07:59N 53°20' E 007°10'0 0.0
2017-Sep-19 07:29N 53°20' E 007°10'0 0.0
2017-Sep-19 06:56N 53°20' E 007°10'0 0.0
2017-Sep-19 06:29N 53°20' E 007°10'0 0.0
2017-Sep-19 05:56N 53°20' E 007°10'0 0.0
2017-Sep-19 05:29N 53°20' E 007°10'0 0.0
2017-Sep-19 04:59N 53°20' E 007°10'0 0.0
2017-Sep-19 04:29N 53°20' E 007°10'0 0.0
2017-Sep-19 03:59N 53°20' E 007°10'0 0.0
2017-Sep-19 03:29N 53°20' E 007°10'0 0.0
2017-Sep-19 02:59N 53°20' E 007°10'0 0.0
2017-Sep-19 02:29N 53°20' E 007°10'0 0.0
2017-Sep-19 01:59N 53°20' E 007°10'0 0.0
2017-Sep-19 01:29N 53°20' E 007°10'0 0.0
2017-Sep-19 00:59N 53°20' E 007°10'0 0.0
2017-Sep-19 00:29N 53°20' E 007°10'0 0.0
2017-Sep-18 23:59N 53°20' E 007°10'0 0.0
2017-Sep-18 23:29N 53°20' E 007°10'0 0.0
2017-Sep-18 22:59N 53°20' E 007°10'0 0.0
2017-Sep-18 22:29N 53°20' E 007°10'0 0.0
2017-Sep-18 21:59N 53°20' E 007°10'0 0.0
2017-Sep-18 21:29N 53°20' E 007°10'0 0.0
2017-Sep-18 20:59N 53°20' E 007°10'0 0.0
2017-Sep-18 20:26N 53°20' E 007°10'0 0.0
2017-Sep-18 19:56N 53°20' E 007°10'0 0.0
2017-Sep-18 19:29N 53°20' E 007°10'0 0.0
2017-Sep-18 18:59N 53°20' E 007°10'0 0.0
2017-Sep-18 18:29N 53°20' E 007°10'0 0.0
2017-Sep-18 17:59N 53°20' E 007°10'0 0.0
2017-Sep-18 17:26N 53°20' E 007°10'0 0.0
2017-Sep-18 16:59N 53°20' E 007°10'0 0.0
2017-Sep-18 16:29N 53°20' E 007°10'0 0.0
2017-Sep-18 15:59N 53°20' E 007°10'0 0.0
2017-Sep-18 15:29N 53°20' E 007°10'0 0.0
2017-Sep-18 14:59N 53°20' E 007°10'0 0.0
2017-Sep-18 14:29N 53°20' E 007°10'0 0.0
2017-Sep-18 13:59N 53°20' E 007°10'0 0.0
2017-Sep-18 13:29N 53°20' E 007°10'0 0.0
2017-Sep-18 12:59N 53°20' E 007°10'0 0.0
2017-Sep-18 12:29N 53°20' E 007°10'0 0.0
2017-Sep-18 11:59N 53°20' E 007°10'0 0.0
2017-Sep-18 11:29N 53°20' E 007°10'0 0.0
2017-Sep-18 10:59N 53°20' E 007°10'0 0.0
2017-Sep-18 10:29N 53°20' E 007°10'0 0.0
2017-Sep-18 09:59N 53°20' E 007°10'0 0.0
2017-Sep-18 09:29N 53°20' E 007°10'0 0.0
2017-Sep-18 08:56N 53°20' E 007°10'0 0.0
2017-Sep-18 08:29N 53°20' E 007°10'0 0.0
2017-Sep-18 07:59N 53°20' E 007°10'0 0.0
2017-Sep-18 07:26N 53°20' E 007°10'0 0.0
2017-Sep-18 06:59N 53°20' E 007°10'0 0.0
2017-Sep-18 06:29N 53°20' E 007°10'0 0.0
2017-Sep-18 05:59N 53°20' E 007°10'0 0.0
2017-Sep-18 05:29N 53°20' E 007°10'0 0.0
2017-Sep-18 04:53N 53°20' E 007°10'0 0.0
2017-Sep-18 04:29N 53°20' E 007°10'0 0.0
2017-Sep-18 03:59N 53°20' E 007°10'0 0.0
2017-Sep-18 03:29N 53°20' E 007°10'0 0.0
2017-Sep-18 02:59N 53°20' E 007°10'0 0.0
2017-Sep-18 02:29N 53°20' E 007°10'0 0.0
2017-Sep-18 01:59N 53°20' E 007°10'0 0.0
2017-Sep-18 01:29N 53°20' E 007°10'0 0.0
2017-Sep-18 00:59N 53°20' E 007°10'0 0.0
2017-Sep-18 00:29N 53°20' E 007°10'0 0.0
2017-Sep-17 23:56N 53°20' E 007°10'0 0.0
2017-Sep-17 23:26N 53°20' E 007°10'0 0.0
2017-Sep-17 22:59N 53°20' E 007°10'0 0.0
2017-Sep-17 22:29N 53°20' E 007°10'0 0.0
2017-Sep-17 21:59N 53°20' E 007°10'0 0.0
2017-Sep-17 21:26N 53°20' E 007°10'0 0.0
2017-Sep-17 20:59N 53°20' E 007°10'0 0.0
2017-Sep-17 20:29N 53°20' E 007°10'0 0.0
2017-Sep-17 19:59N 53°20' E 007°10'0 0.0
2017-Sep-17 19:29N 53°20' E 007°10'0 0.0
2017-Sep-17 18:59N 53°20' E 007°10'0 0.0
2017-Sep-17 18:29N 53°20' E 007°10'0 0.0
2017-Sep-17 17:59N 53°20' E 007°10'0 0.0
2017-Sep-17 17:26N 53°20' E 007°10'0 0.0
2017-Sep-17 16:59N 53°20' E 007°10'0 0.0
2017-Sep-17 16:29N 53°20' E 007°10'0 0.0
2017-Sep-17 15:59N 53°20' E 007°10'0 0.0
2017-Sep-17 15:26N 53°20' E 007°10'0 0.0
2017-Sep-17 14:59N 53°20' E 007°10'0 0.0
2017-Sep-17 14:29N 53°20' E 007°10'0 0.0
2017-Sep-17 13:50N 53°20' E 007°10'0 0.0
2017-Sep-17 13:26N 53°20' E 007°10'0 0.0
2017-Sep-17 12:59N 53°20' E 007°10'0 0.0
2017-Sep-17 12:29N 53°20' E 007°10'0 0.0
2017-Sep-17 11:56N 53°20' E 007°10'0 0.0
2017-Sep-17 11:29N 53°20' E 007°10'0 0.0
2017-Sep-17 10:59N 53°20' E 007°10'0 0.0
2017-Sep-17 10:29N 53°20' E 007°10'0 0.1
2017-Sep-17 10:00N 53°20' E 007°10'1 1.7
2017-Sep-17 09:30N 53°20' E 007°08'4 8.4
2017-Sep-17 09:00N 53°19' E 007°01'510.2
2017-Sep-17 08:31N 53°24' E 006°57'611.6
2017-Sep-17 08:00N 53°28' E 006°51'22 3.1
2017-Sep-17 00:59N 53°36' E 006°17'0 0.1
2017-Sep-17 00:26N 53°36' E 006°17'0 0.1
2017-Sep-16 23:56N 53°36' E 006°17'0 0.1
2017-Sep-16 23:26N 53°36' E 006°17'0 0.0
2017-Sep-16 22:56N 53°36' E 006°17'0 0.0
2017-Sep-16 22:26N 53°36' E 006°17'0 0.0
2017-Sep-16 21:59N 53°36' E 006°17'0 0.0
2017-Sep-16 21:23N 53°36' E 006°17'0 0.1
2017-Sep-16 20:59N 53°36' E 006°17'0 0.1
2017-Sep-16 20:29N 53°36' E 006°17'0 0.0
2017-Sep-16 19:59N 53°36' E 006°17'0 0.0
2017-Sep-16 19:26N 53°36' E 006°17'0 0.0
2017-Sep-16 18:56N 53°36' E 006°17'0 0.0
2017-Sep-16 18:29N 53°36' E 006°17'0 0.0
2017-Sep-16 17:59N 53°36' E 006°17'0 0.0
2017-Sep-16 17:29N 53°36' E 006°17'0 0.0
2017-Sep-16 16:59N 53°36' E 006°17'0 0.0
2017-Sep-16 16:26N 53°36' E 006°17'0 0.0
2017-Sep-16 15:56N 53°36' E 006°17'0 0.0
2017-Sep-16 15:29N 53°36' E 006°17'0 0.0
2017-Sep-16 14:59N 53°36' E 006°17'0 0.0
2017-Sep-16 14:26N 53°36' E 006°17'0 0.0
2017-Sep-16 13:50N 53°36' E 006°17'0 0.0
2017-Sep-16 13:17N 53°36' E 006°17'0 0.0
2017-Sep-16 12:53N 53°36' E 006°17'0 0.0
2017-Sep-16 12:23N 53°36' E 006°17'0 0.1
2017-Sep-16 11:44N 53°36' E 006°17'0 0.0
2017-Sep-16 11:26N 53°36' E 006°17'28 1.5
2017-Sep-15 17:30N 53°35' E 005°30'816.3
2017-Sep-15 17:00N 53°32' E 005°17'816.1
2017-Sep-15 16:30N 53°29' E 005°05'816.1
2017-Sep-15 16:00N 53°26' E 004°52'815.4
2017-Sep-15 15:30N 53°22' E 004°41'815.8
2017-Sep-15 14:59N 53°15' E 004°35'816.0
2017-Sep-15 14:30N 53°08' E 004°29'815.9
2017-Sep-15 14:00N 53°02' E 004°21'816.1
2017-Sep-15 13:30N 52°54' E 004°16'816.1
2017-Sep-15 13:00N 52°47' E 004°09'816.4
2017-Sep-15 12:30N 52°41' E 003°60'816.6
2017-Sep-15 12:00N 52°35' E 003°51'816.6
2017-Sep-15 11:30N 52°29' E 003°41'6317.0
2017-Sep-15 07:47N 51°43' E 002°31'516.9
2017-Sep-15 07:30N 51°39' E 002°27'816.8
2017-Sep-15 07:00N 51°32' E 002°18'816.3
2017-Sep-15 06:30N 51°25' E 002°12'816.3
2017-Sep-15 06:00N 51°18' E 002°07'815.9
2017-Sep-15 05:30N 51°12' E 001°59'816.4
2017-Sep-15 05:00N 51°07' E 001°48'815.9
2017-Sep-15 04:30N 51°01' E 001°39'815.5
2017-Sep-15 04:00N 50°56' E 001°30'715.0
2017-Sep-15 03:30N 50°49' E 001°26'814.3
2017-Sep-15 02:59N 50°42' E 001°22'815.2
2017-Sep-15 02:26N 50°36' E 001°13'715.5
2017-Sep-15 01:59N 50°31' E 001°05'915.5
2017-Sep-15 01:26N 50°28' E 000°53'816.0
2017-Sep-15 00:57N 50°27' E 000°41'715.9
2017-Sep-15 00:30N 50°25' E 000°30'815.7
2017-Sep-15 00:00N 50°22' E 000°19'815.5
2017-Sep-14 23:30N 50°20' E 000°07'815.4
2017-Sep-14 23:00N 50°19' W 000°05'815.2
2017-Sep-14 22:30N 50°17' W 000°17'2614.6
2017-Sep-14 20:44N 50°11' W 000°56'314.1
2017-Sep-14 20:30N 50°10' W 001°01'714.0
2017-Sep-14 20:00N 50°08' W 001°11'714.0
2017-Sep-14 19:30N 50°06' W 001°22'714.1
2017-Sep-14 19:00N 50°04' W 001°32'714.3
2017-Sep-14 18:30N 50°02' W 001°43'714.6
2017-Sep-14 18:00N 50°00' W 001°54'715.0
2017-Sep-14 17:30N 49°59' W 002°05'815.7
2017-Sep-14 16:59N 49°57' W 002°17'816.0
2017-Sep-14 16:30N 49°54' W 002°29'816.4
2017-Sep-14 16:00N 49°52' W 002°41'816.5
2017-Sep-14 15:30N 49°50' W 002°53'816.6
2017-Sep-14 15:00N 49°49' W 003°06'816.6
2017-Sep-14 14:30N 49°48' W 003°19'816.6
2017-Sep-14 14:00N 49°47' W 003°32'816.5
2017-Sep-14 13:30N 49°48' W 003°45'816.6
2017-Sep-14 13:00N 49°47' W 003°57'816.5
2017-Sep-14 12:30N 49°46' W 004°10'816.5
2017-Sep-14 12:00N 49°46' W 004°23'916.4
2017-Sep-14 11:27N 49°45' W 004°37'716.4
2017-Sep-14 11:00N 49°44' W 004°48'1816.2
2017-Sep-14 09:53N 49°42' W 005°16'  

Dump ship's entire track history